Time;durP1;ratioP1;P1;durP2;ratioP2;P2;SDS_P1;SDS_P2;PMS_P1;PMS_P2;Temp;Humidity;BMP_temperature;BMP_pressure;BME280_temperature;BME280_humidity;BME280_pressure;Samples;Min_cycle;Max_cycle;Signal;HPM_P1;HPM_P2
2022/04/06 00:01:45;;;;;;;0.20;0.20;;;10.40;99.90;;;10.69;nan;99918.19;4986060;28;20658;-70
2022/04/06 00:04:13;;;;;;;0.20;0.20;;;10.40;99.90;;;10.71;nan;99918.09;4974543;28;21147;-70
2022/04/06 00:06:40;;;;;;;0.20;0.20;;;10.40;99.90;;;10.74;nan;99910.00;4973126;28;20634;-69
2022/04/06 00:09:15;;;;;;;0.20;0.20;;;10.50;99.90;;;10.81;nan;99917.19;4985105;28;20649;-70
2022/04/06 00:11:42;;;;;;;0.20;0.20;;;10.50;99.90;;;10.79;nan;99906.06;4992796;28;20657;-70
2022/04/06 00:14:09;;;;;;;0.20;0.20;;;10.50;99.90;;;10.79;nan;99903.44;4991558;28;20992;-70
2022/04/06 00:16:36;;;;;;;0.20;0.20;;;10.50;99.90;;;10.83;nan;99902.22;4992657;28;20629;-70
2022/04/06 00:19:03;;;;;;;0.20;0.20;;;10.60;99.90;;;10.79;nan;99900.84;4986225;28;20667;-69
2022/04/06 00:21:30;;;;;;;0.20;0.20;;;10.50;99.90;;;10.88;nan;99891.41;4991158;28;20660;-69
2022/04/06 00:23:58;;;;;;;0.20;0.20;;;10.60;99.90;;;10.85;nan;99889.03;4974412;28;20623;-69
2022/04/06 00:26:25;;;;;;;0.20;0.20;;;10.60;99.90;;;10.83;nan;99897.00;4973692;28;20638;-69
2022/04/06 00:28:52;;;;;;;0.20;0.20;;;10.60;99.90;;;10.88;nan;99894.81;4989711;28;20645;-69
2022/04/06 00:31:19;;;;;;;0.20;0.20;;;10.60;99.90;;;10.84;nan;99887.38;4992697;28;20709;-69
2022/04/06 00:33:47;;;;;;;0.20;0.20;;;10.50;99.90;;;10.82;nan;99889.28;4985560;28;20650;-70
2022/04/06 00:36:14;;;;;;;0.20;0.20;;;10.60;99.90;;;10.88;nan;99887.00;4987606;28;20623;-69
2022/04/06 00:38:41;;;;;;;2.37;2.23;;;10.60;99.90;;;10.90;nan;99882.47;4973586;28;20682;-69
2022/04/06 00:41:08;;;;;;;0.30;0.30;;;10.60;99.90;;;10.97;nan;99882.78;4972623;28;20619;-69
2022/04/06 00:43:35;;;;;;;0.20;0.20;;;10.70;99.90;;;11.00;nan;99884.31;4989077;28;20634;-69
2022/04/06 00:46:02;;;;;;;0.30;0.30;;;10.80;99.90;;;11.00;nan;99881.69;4992406;28;20646;-67
2022/04/06 00:48:30;;;;;;;0.20;0.20;;;10.70;99.90;;;10.87;nan;99877.53;4980826;28;20635;-69
2022/04/06 00:50:58;;;;;;;0.20;0.20;;;10.70;99.90;;;10.87;nan;99876.69;4972266;28;20631;-70
2022/04/06 00:56:07;;;;;;;0.20;0.20;;;10.70;99.90;;;10.90;nan;99863.38;5978527;23;20630;-72
2022/04/06 00:58:34;;;;;;;0.20;0.20;;;10.60;99.90;;;10.91;nan;99858.03;4982419;28;20658;-75
2022/04/06 01:01:01;;;;;;;0.20;0.20;;;10.70;99.90;;;10.91;nan;99852.81;4980762;28;20657;-74
2022/04/06 01:03:28;;;;;;;0.20;0.20;;;10.70;99.90;;;10.85;nan;99853.34;5108580;23;21344;-71
2022/04/06 01:05:55;;;;;;;0.20;0.20;;;10.60;99.90;;;10.89;nan;99851.28;4986075;28;20639;-72
2022/04/06 01:08:23;;;;;;;0.20;0.20;;;10.60;99.90;;;10.88;nan;99853.06;4968670;28;20702;-72
2022/04/06 01:10:50;;;;;;;0.20;0.20;;;10.60;99.90;;;10.87;nan;99846.22;4982979;28;20641;-72
2022/04/06 01:18:41;;;;;;;0.20;0.20;;;10.70;99.90;;;10.98;nan;99842.69;5058186;23;20687;-74
2022/04/06 01:21:11;;;;;;;0.20;0.20;;;10.70;99.90;;;10.93;nan;99843.06;4971537;28;20619;-73
2022/04/06 01:26:20;;;;;;;0.20;0.20;;;10.80;99.90;;;11.03;nan;99844.91;5187199;23;20703;-72
2022/04/06 01:28:48;;;;;;;0.20;0.20;;;10.80;99.90;;;11.00;nan;99839.94;4971920;28;20611;-73
2022/04/06 01:31:16;;;;;;;1.50;0.90;;;10.70;99.90;;;11.08;nan;99833.09;4973481;28;20618;-74
2022/04/06 01:39:09;;;;;;;0.20;0.20;;;10.80;99.90;;;11.15;nan;99836.00;4989565;28;21137;-72
2022/04/06 01:53:03;;;;;;;0.20;0.20;;;10.80;99.90;;;11.03;nan;99829.22;5192306;23;20720;-76
2022/04/06 01:55:30;;;;;;;0.50;0.50;;;10.80;99.90;;;11.15;nan;99836.00;5001188;28;21218;-74
2022/04/06 01:57:57;;;;;;;0.20;0.20;;;10.80;99.90;;;11.13;nan;99833.53;5030787;28;20620;-72
2022/04/06 02:00:24;;;;;;;0.20;0.20;;;10.80;99.90;;;11.08;nan;99821.81;5029596;28;20668;-75
2022/04/06 02:02:52;;;;;;;0.20;0.20;;;10.80;99.90;;;11.19;nan;99829.53;5002891;28;20672;-72
2022/04/06 02:05:21;;;;;;;0.57;0.57;;;10.90;99.90;;;11.18;nan;99825.28;5005008;28;20638;-73
2022/04/06 02:07:50;;;;;;;0.30;0.30;;;10.90;99.90;;;11.21;nan;99822.41;5010645;28;20656;-73
2022/04/06 02:10:18;;;;;;;0.20;0.20;;;11.00;99.90;;;11.22;nan;99819.66;5003387;28;21193;-73
2022/04/06 02:12:48;;;;;;;0.20;0.20;;;10.90;99.90;;;11.18;nan;99812.25;5090201;23;20683;-73
2022/04/06 02:15:15;;;;;;;8.03;6.40;;;10.90;99.90;;;11.18;nan;99817.47;4990705;28;20629;-72
2022/04/06 02:17:44;;;;;;;0.23;0.23;;;10.90;99.90;;;11.20;nan;99816.34;5010281;28;20633;-76
2022/04/06 02:20:11;;;;;;;0.20;0.20;;;10.90;99.90;;;11.18;nan;99814.84;5010558;28;20665;-73
2022/04/06 02:22:41;;;;;;;0.20;0.20;;;10.90;99.90;;;11.21;nan;99819.78;5005122;28;20656;-72
2022/04/06 02:25:09;;;;;;;0.80;0.80;;;10.90;99.90;;;11.02;nan;99806.69;5009880;28;20634;-73
2022/04/06 02:27:53;;;;;;;0.20;0.20;;;10.80;99.90;;;11.06;nan;99814.13;4992955;28;20970;-67
2022/04/06 02:30:21;;;;;;;0.20;0.20;;;10.80;99.90;;;11.14;nan;99810.88;4993146;28;21211;-72
2022/04/06 02:32:48;;;;;;;0.20;0.20;;;10.80;99.90;;;11.16;nan;99808.94;5011162;28;20634;-72
2022/04/06 02:35:16;;;;;;;0.20;0.20;;;10.80;99.90;;;11.15;nan;99810.72;4992108;28;20636;-73
2022/04/06 02:37:44;;;;;;;0.20;0.20;;;10.80;99.90;;;11.17;nan;99813.19;4993556;28;20629;-73
2022/04/06 02:40:14;;;;;;;0.20;0.20;;;10.90;99.90;;;11.15;nan;99802.88;5013866;28;20653;-74
2022/04/06 02:42:42;;;;;;;1.90;1.77;;;10.90;99.90;;;11.08;nan;99800.94;5013401;28;20664;-76
2022/04/06 02:45:10;;;;;;;0.20;0.20;;;10.80;99.90;;;11.14;nan;99805.63;4996149;28;20636;-73
2022/04/06 02:47:39;;;;;;;0.20;0.20;;;10.90;99.90;;;11.15;nan;99799.44;4976775;28;20642;-73
2022/04/06 02:50:07;;;;;;;0.20;0.20;;;10.90;99.90;;;10.98;nan;99802.69;4997667;28;20638;-72
2022/04/06 02:52:37;;;;;;;0.20;0.20;;;10.80;99.90;;;11.01;nan;99794.59;4987591;28;21468;-72
2022/04/06 02:55:09;;;;;;;0.30;0.30;;;10.70;99.90;;;11.01;nan;99786.78;4964131;28;20629;-73
2022/04/06 02:57:36;;;;;;;0.20;0.20;;;10.70;99.90;;;10.98;nan;99787.03;5010478;28;20720;-68
2022/04/06 03:00:04;;;;;;;0.20;0.20;;;10.80;99.90;;;11.00;nan;99783.34;4994742;28;21221;-72
2022/04/06 03:02:31;;;;;;;0.20;0.20;;;10.70;99.90;;;11.05;nan;99786.38;5419159;23;21110;-71
2022/04/06 03:04:58;;;;;;;0.20;0.20;;;10.70;99.90;;;11.09;nan;99782.53;4996049;28;20645;-75
2022/04/06 03:07:25;;;;;;;0.20;0.20;;;10.80;99.90;;;11.14;nan;99777.72;5009713;28;20633;-73
2022/04/06 03:09:52;;;;;;;0.20;0.20;;;10.90;99.90;;;11.13;nan;99778.69;5003824;28;20637;-74
2022/04/06 03:12:19;;;;;;;0.20;0.20;;;10.90;99.90;;;11.20;nan;99779.00;5091659;23;20681;-72
2022/04/06 03:14:46;;;;;;;0.30;0.30;;;10.90;99.90;;;11.14;nan;99774.31;4990427;28;20684;-73
2022/04/06 03:17:16;;;;;;;0.30;0.30;;;10.80;99.90;;;11.10;nan;99773.72;4994798;28;20622;-73
2022/04/06 03:19:43;;;;;;;0.20;0.20;;;10.80;99.90;;;11.09;nan;99768.66;4993939;28;20657;-72
2022/04/06 03:22:16;;;;;;;0.20;0.20;;;10.80;99.90;;;11.08;nan;99764.38;4995145;28;20638;-73
2022/04/06 03:24:44;;;;;;;0.20;0.20;;;10.80;99.90;;;10.97;nan;99769.75;5011381;28;20618;-73
2022/04/06 03:27:11;;;;;;;0.20;0.20;;;10.70;99.90;;;11.02;nan;99764.91;5014086;28;20633;-72
2022/04/06 03:29:40;;;;;;;0.20;0.20;;;10.70;99.90;;;10.94;nan;99768.22;4995393;28;21042;-69
2022/04/06 03:32:08;;;;;;;0.20;0.20;;;10.70;99.90;;;11.00;nan;99769.44;5012618;28;20653;-72
2022/04/06 03:34:35;;;;;;;0.20;0.20;;;10.70;99.90;;;10.94;nan;99769.00;4995901;28;21051;-72
2022/04/06 03:37:02;;;;;;;0.20;0.20;;;10.70;99.90;;;10.98;nan;99769.59;4989011;28;20626;-73
2022/04/06 03:39:30;;;;;;;0.20;0.20;;;10.70;99.90;;;11.11;nan;99769.34;5011492;28;20629;-72
2022/04/06 03:41:57;;;;;;;0.20;0.20;;;10.80;99.90;;;11.13;nan;99773.47;5012116;28;20716;-73
2022/04/06 03:44:24;;;;;;;0.20;0.20;;;10.80;99.90;;;11.18;nan;99778.31;4995577;28;20625;-72
2022/04/06 03:46:52;;;;;;;0.20;0.20;;;10.90;99.90;;;11.24;nan;99772.53;4975705;28;20640;-72
2022/04/06 03:49:19;;;;;;;0.20;0.20;;;10.90;99.90;;;11.24;nan;99772.53;5011114;28;20635;-72
2022/04/06 03:51:46;;;;;;;0.20;0.20;;;11.00;99.90;;;11.27;nan;99762.63;4963429;28;20641;-73
2022/04/06 03:54:13;;;;;;;0.20;0.20;;;11.00;99.90;;;11.30;nan;99769.38;5013844;28;20637;-73
2022/04/06 03:56:40;;;;;;;0.20;0.20;;;11.00;99.90;;;11.30;nan;99764.16;5012689;28;23170;-74
2022/04/06 03:59:07;;;;;;;0.20;0.20;;;11.00;99.90;;;11.27;nan;99770.47;4994929;28;21260;-72
2022/04/06 04:01:37;;;;;;;0.20;0.20;;;11.00;99.90;;;11.29;nan;99762.50;5012152;28;21230;-73
2022/04/06 04:04:04;;;;;;;0.20;0.20;;;11.00;99.90;;;11.40;nan;99759.75;5009671;28;20635;-73
2022/04/06 04:06:32;;;;;;;0.20;0.20;;;11.10;99.90;;;11.38;nan;99762.50;4993458;28;20630;-74
2022/04/06 04:08:59;;;;;;;0.20;0.20;;;11.00;99.90;;;11.35;nan;99764.59;4994374;28;20637;-73
2022/04/06 04:11:26;;;;;;;0.20;0.20;;;11.10;99.90;;;11.28;nan;99761.69;4993631;28;20628;-72
2022/04/06 04:13:53;;;;;;;0.20;0.20;;;11.00;99.90;;;11.24;nan;99762.09;5083608;23;20711;-73
2022/04/06 04:16:20;;;;;;;0.20;0.20;;;11.00;99.90;;;11.31;nan;99765.78;5013932;28;21195;-72
2022/04/06 04:18:47;;;;;;;0.20;0.20;;;11.00;99.90;;;11.29;nan;99765.09;4998407;28;21077;-72
2022/04/06 04:21:33;;;;;;;0.20;0.20;;;11.00;99.90;;;11.29;nan;99759.88;5031116;28;20664;-74
2022/04/06 04:24:05;;;;;;;0.20;0.20;;;11.00;99.90;;;11.32;nan;99754.41;5012118;28;20633;-75
2022/04/06 04:26:34;;;;;;;0.20;0.20;;;11.00;99.90;;;11.24;nan;99760.31;4994628;28;20642;-74
2022/04/06 04:29:05;;;;;;;0.20;0.20;;;11.00;99.90;;;11.27;nan;99759.19;4977907;28;20677;-73
2022/04/06 04:31:32;;;;;;;0.20;0.20;;;11.00;99.90;;;11.27;nan;99753.97;4994584;28;20624;-75
2022/04/06 04:34:00;;;;;;;0.30;0.30;;;11.00;99.90;;;11.28;nan;99742.56;5011544;28;20700;-73
2022/04/06 04:36:27;;;;;;;0.20;0.20;;;10.90;99.90;;;11.29;nan;99749.44;5010947;28;20633;-73
2022/04/06 04:38:55;;;;;;;0.20;0.20;;;11.00;99.90;;;11.37;nan;99745.19;5003684;28;20634;-73
2022/04/06 04:41:22;;;;;;;0.20;0.20;;;11.10;99.90;;;11.32;nan;99751.78;5024382;28;21037;-75
2022/04/06 04:43:50;;;;;;;0.20;0.20;;;11.00;99.90;;;11.34;nan;99747.25;5002714;28;20666;-72
2022/04/06 04:46:21;;;;;;;0.20;0.20;;;11.00;99.90;;;11.30;nan;99740.66;4974703;28;20682;-72
2022/04/06 04:48:48;;;;;;;0.40;0.40;;;11.00;99.90;;;11.30;nan;99751.09;4986327;28;20634;-74
2022/04/06 04:51:15;;;;;;;0.20;0.20;;;11.00;99.90;;;11.32;nan;99749.19;4974995;28;20622;-73
2022/04/06 04:53:43;;;;;;;0.20;0.20;;;11.00;99.90;;;11.33;nan;99753.44;4999946;28;20660;-75
2022/04/06 04:56:10;;;;;;;0.20;0.20;;;11.00;99.90;;;11.39;nan;99753.69;5011654;28;20687;-74
2022/04/06 04:58:37;;;;;;;0.20;0.20;;;11.10;99.90;;;11.36;nan;99753.16;4989878;28;20665;-67
2022/04/06 05:01:05;;;;;;;0.30;0.30;;;11.10;99.90;;;11.36;nan;99745.31;4997425;28;20668;-74
2022/04/06 05:03:31;;;;;;;0.20;0.20;;;11.00;99.90;;;11.29;nan;99752.03;4985998;28;20650;-71
2022/04/06 05:05:59;;;;;;;0.20;0.20;;;11.00;99.90;;;11.35;nan;99747.09;5005207;28;20630;-74
2022/04/06 05:08:26;;;;;;;0.20;0.20;;;11.00;99.90;;;11.32;nan;99742.19;5010728;28;20641;-73
2022/04/06 05:10:53;;;;;;;0.20;0.20;;;11.00;99.90;;;11.43;nan;99739.44;5009949;28;20633;-73
2022/04/06 05:13:20;;;;;;;0.30;0.30;;;11.10;99.90;;;11.42;nan;99735.16;5359593;23;21250;-74
2022/04/06 05:15:48;;;;;;;0.30;0.30;;;11.10;99.90;;;11.37;nan;99742.56;5010345;28;20707;-74
2022/04/06 05:18:15;;;;;;;0.20;0.20;;;11.10;99.90;;;11.27;nan;99733.06;4993297;28;20671;-74
2022/04/06 05:20:42;;;;;;;0.20;0.20;;;11.10;99.90;;;11.25;nan;99735.00;5007286;28;21052;-70
2022/04/06 05:23:09;;;;;;;0.20;0.20;;;11.00;99.90;;;11.24;nan;99736.81;5010929;28;20657;-73
2022/04/06 05:25:36;;;;;;;0.20;0.20;;;10.90;99.90;;;11.23;nan;99732.53;5010444;28;20634;-75
2022/04/06 05:28:04;;;;;;;0.20;0.20;;;11.00;99.90;;;11.16;nan;99728.00;5010539;28;21046;-74
2022/04/06 05:30:32;;;;;;;0.20;0.20;;;10.90;99.90;;;11.06;nan;99740.19;4993369;28;20640;-75
2022/04/06 05:32:59;;;;;;;0.20;0.20;;;10.80;99.90;;;11.13;nan;99726.50;5111979;23;20677;-73
2022/04/06 05:35:27;;;;;;;0.20;0.20;;;10.80;99.90;;;11.17;nan;99727.88;4992114;28;20640;-73
2022/04/06 05:37:57;;;;;;;0.30;0.30;;;10.90;99.90;;;11.20;nan;99730.19;4993995;28;20617;-74
2022/04/06 05:40:25;;;;;;;0.20;0.20;;;10.90;99.90;;;11.23;nan;99729.94;4992902;28;20704;-74
2022/04/06 05:42:53;;;;;;;0.20;0.20;;;11.00;99.90;;;11.22;nan;99733.47;5005121;28;20656;-73
2022/04/06 05:45:20;;;;;;;0.20;0.20;;;10.90;99.90;;;11.24;nan;99726.38;4992907;28;20644;-74
2022/04/06 05:47:47;;;;;;;0.20;0.20;;;11.00;99.90;;;11.29;nan;99731.16;5009698;28;20633;-73
2022/04/06 05:50:15;;;;;;;0.27;0.27;;;11.00;99.90;;;11.31;nan;99732.66;4999864;28;20649;-74
2022/04/06 05:52:42;;;;;;;0.20;0.20;;;11.00;99.90;;;11.37;nan;99742.56;5000050;28;20657;-74
2022/04/06 05:55:10;;;;;;;0.20;0.20;;;11.10;99.90;;;11.37;nan;99726.09;4993164;28;21034;-74
2022/04/06 05:57:37;;;;;;;0.50;0.50;;;11.10;99.90;;;11.43;nan;99736.00;5009928;28;20645;-69
2022/04/06 06:00:08;;;;;;;0.20;0.20;;;11.20;99.90;;;11.49;nan;99736.28;5009166;28;20633;-73
2022/04/06 06:02:35;;;;;;;0.20;0.20;;;11.20;99.90;;;11.52;nan;99738.59;4992989;28;20657;-73
2022/04/06 06:05:04;;;;;;;0.20;0.20;;;11.30;99.90;;;11.52;nan;99741.19;4992965;28;20637;-74
2022/04/06 06:07:31;;;;;;;0.20;0.20;;;11.20;99.90;;;11.51;nan;99734.34;4992647;28;20634;-73
2022/04/06 06:09:58;;;;;;;0.20;0.20;;;11.20;99.90;;;11.56;nan;99728.72;5009235;28;21075;-74
2022/04/06 06:12:25;;;;;;;0.20;0.20;;;11.30;99.90;;;11.56;nan;99739.97;5009686;28;20660;-73
2022/04/06 06:14:51;;;;;;;0.20;0.20;;;11.30;99.90;;;11.58;nan;99734.63;4992201;28;20644;-73
2022/04/06 06:17:18;;;;;;;0.20;0.20;;;11.30;99.90;;;11.61;nan;99726.50;5010430;28;20701;-73
2022/04/06 06:19:45;;;;;;;0.20;0.20;;;11.40;99.90;;;11.73;nan;99733.28;5009645;28;20990;-73
2022/04/06 06:22:12;;;;;;;0.60;0.60;;;11.50;99.90;;;11.81;nan;99735.16;5031508;23;20689;-75
2022/04/06 06:24:39;;;;;;;0.20;0.20;;;11.60;99.90;;;11.83;nan;99739.31;4993253;28;20692;-73
2022/04/06 06:27:06;;;;;;;0.90;0.90;;;11.60;99.90;;;11.85;nan;99739.16;5017779;28;20635;-76
2022/04/06 06:29:33;;;;;;;0.20;0.20;;;11.60;99.90;;;11.91;nan;99730.75;4995734;28;20634;-73
2022/04/06 06:32:00;;;;;;;0.87;0.70;;;11.60;99.90;;;11.94;nan;99733.94;5011731;28;20660;-76
2022/04/06 06:34:27;;;;;;;0.30;0.30;;;11.70;99.90;;;11.94;nan;99733.09;5012645;28;20637;-73
2022/04/06 06:36:54;;;;;;;0.20;0.20;;;11.70;99.90;;;11.94;nan;99735.72;5008896;28;20629;-76
2022/04/06 06:39:21;;;;;;;0.20;0.20;;;11.70;99.90;;;11.98;nan;99730.06;5011431;28;20641;-73
2022/04/06 06:41:48;;;;;;;0.30;0.30;;;11.80;99.90;;;12.03;nan;99725.22;5010010;28;20680;-73
2022/04/06 06:44:15;;;;;;;0.20;0.20;;;11.80;99.90;;;11.98;nan;99724.84;5009163;28;20641;-74
2022/04/06 06:46:42;;;;;;;0.20;0.20;;;11.70;99.90;;;11.95;nan;99726.88;5010605;28;20581;-73
2022/04/06 06:49:10;;;;;;;0.20;0.20;;;11.70;99.90;;;12.04;nan;99726.88;5007741;28;20645;-74
2022/04/06 06:54:34;;;;;;;0.20;0.20;;;11.80;99.90;;;12.09;nan;99726.47;4967227;28;20655;-68
2022/04/06 06:57:01;;;;;;;0.20;0.20;;;11.90;99.90;;;12.16;nan;99733.56;4971747;28;20643;-68
2022/04/06 06:59:28;;;;;;;0.20;0.20;;;11.90;99.90;;;12.23;nan;99726.81;4969344;28;20643;-68
2022/04/06 07:01:55;;;;;;;0.20;0.20;;;12.00;99.90;;;12.33;nan;99734.63;4970726;28;20671;-68
2022/04/06 07:04:22;;;;;;;0.20;0.20;;;12.10;99.90;;;12.39;nan;99727.03;4971593;28;20626;-68
2022/04/06 07:06:50;;;;;;;0.20;0.20;;;12.20;99.90;;;12.23;nan;99726.81;4981643;28;20635;-69
2022/04/06 07:09:17;;;;;;;0.20;0.20;;;12.10;99.90;;;12.24;nan;99733.72;4990076;28;20626;-69
2022/04/06 07:11:44;;;;;;;0.20;0.20;;;12.00;99.90;;;12.28;nan;99727.22;4967893;28;21011;-69
2022/04/06 07:14:11;;;;;;;0.30;0.20;;;12.10;99.90;;;12.25;nan;99735.34;4992486;28;20717;-69
2022/04/06 07:16:38;;;;;;;0.30;0.30;;;12.10;99.90;;;12.34;nan;99731.88;4997793;28;21197;-69
2022/04/06 07:19:05;;;;;;;0.90;0.90;;;12.10;99.90;;;12.34;nan;99731.88;4994655;28;21049;-69
2022/04/06 07:21:32;;;;;;;0.40;0.40;;;12.10;99.90;;;12.36;nan;99731.75;4956695;28;20675;-69
2022/04/06 07:24:01;;;;;;;0.20;0.20;;;12.10;99.90;;;12.39;nan;99727.03;4971979;28;20674;-69
2022/04/06 07:26:29;;;;;;;0.30;0.30;;;12.20;99.90;;;12.40;nan;99720.00;4983108;28;20647;-69
2022/04/06 07:28:56;;;;;;;0.20;0.20;;;12.10;99.90;;;12.42;nan;99726.75;4988761;28;20634;-68
2022/04/06 07:31:23;;;;;;;0.20;0.20;;;12.20;99.90;;;12.48;nan;99723.56;4978205;28;20639;-68
2022/04/06 07:33:50;;;;;;;0.20;0.20;;;12.30;99.90;;;12.52;nan;99724.13;4972749;28;20663;-65
2022/04/06 07:36:18;;;;;;;0.20;0.20;;;12.30;99.90;;;12.58;nan;99730.56;4967982;28;20634;-68
2022/04/06 07:38:45;;;;;;;0.20;0.20;;;12.40;99.90;;;12.70;nan;99727.59;4994387;28;20622;-68
2022/04/06 07:41:12;;;;;;;0.30;0.20;;;12.50;99.90;;;12.78;nan;99730.31;4985745;28;20678;-67
2022/04/06 07:43:39;;;;;;;0.30;0.20;;;12.60;99.90;;;12.88;nan;99731.09;4993449;28;20704;-69
2022/04/06 07:46:07;;;;;;;0.30;0.20;;;12.70;99.90;;;12.97;nan;99722.34;5001742;28;20632;-69
2022/04/06 07:48:35;;;;;;;0.30;0.20;;;12.90;99.90;;;13.10;nan;99724.63;4991030;28;20711;-71
2022/04/06 07:51:03;;;;;;;0.30;0.20;;;13.00;99.90;;;13.15;nan;99714.53;4990571;28;20639;-67
2022/04/06 07:53:30;;;;;;;0.30;0.20;;;13.00;99.90;;;13.19;nan;99721.13;4997316;28;21059;-69
2022/04/06 07:55:57;;;;;;;0.30;0.20;;;13.00;99.90;;;13.23;nan;99709.38;5000288;28;20633;-70
2022/04/06 07:58:24;;;;;;;0.30;0.20;;;13.10;99.90;;;13.18;nan;99714.25;4985117;28;20642;-70
2022/04/06 08:00:51;;;;;;;0.30;0.20;;;13.00;99.90;;;13.32;nan;99708.50;4998088;28;20673;-70
2022/04/06 08:03:18;;;;;;;0.30;0.20;;;13.20;99.90;;;13.39;nan;99708.72;4999643;28;20734;-70
2022/04/06 08:05:45;;;;;;;0.30;0.20;;;13.20;99.90;;;13.42;nan;99713.63;4970896;28;21216;-71
2022/04/06 08:08:13;;;;;;;0.30;0.20;;;13.30;99.90;;;13.49;nan;99710.28;4992199;28;20683;-72
2022/04/06 08:10:40;;;;;;;0.30;0.20;;;13.40;99.90;;;13.41;nan;99706.78;4990101;28;20696;-71
2022/04/06 08:13:07;;;;;;;0.30;0.30;;;13.30;99.90;;;13.50;nan;99713.72;4996595;28;20650;-70
2022/04/06 08:15:34;;;;;;;0.30;0.20;;;13.40;99.90;;;13.53;nan;99709.00;4988437;28;20622;-68
2022/04/06 08:18:01;;;;;;;0.30;0.20;;;13.40;99.90;;;13.53;nan;99703.75;4988104;28;20638;-69
2022/04/06 08:20:28;;;;;;;0.30;0.20;;;13.40;99.90;;;13.66;nan;99712.06;4992423;28;20622;-66
2022/04/06 08:22:59;;;;;;;0.30;0.20;;;13.60;99.90;;;14.31;nan;99704.66;4978282;28;20682;-69
2022/04/06 08:25:27;;;;;;;0.30;0.30;;;14.30;99.90;;;15.76;nan;99703.19;4975030;28;20631;-69
2022/04/06 08:28:05;;;;;;;0.30;0.30;;;16.00;99.90;;;17.92;nan;99702.34;4994862;28;20602;-70
2022/04/06 08:30:39;;;;;;;0.30;0.30;;;18.50;98.30;;;18.77;nan;99706.19;4997111;28;20633;-69
2022/04/06 08:33:07;;;;;;;0.30;0.30;;;19.40;93.20;;;18.73;nan;99704.09;4992625;28;20662;-69
2022/04/06 08:35:33;;;;;;;0.40;0.40;;;19.60;85.00;;;17.96;nan;99692.22;4979074;28;20988;-69
2022/04/06 08:38:02;;;;;;;0.30;0.30;;;18.60;83.20;;;17.33;nan;99701.31;4989129;28;21220;-69
2022/04/06 08:40:35;;;;;;;0.30;0.30;;;17.90;85.10;;;16.92;nan;99702.56;4986194;28;20634;-72
2022/04/06 08:43:03;;;;;;;0.30;0.30;;;17.20;88.10;;;16.42;nan;99699.47;4972913;28;20674;-71
2022/04/06 08:45:34;;;;;;;0.30;0.30;;;16.60;90.40;;;15.98;nan;99699.06;4972447;28;20631;-69
2022/04/06 08:48:02;;;;;;;0.30;0.30;;;16.20;91.50;;;15.86;nan;99689.88;4981261;28;20626;-69
2022/04/06 08:50:30;;;;;;;0.30;0.30;;;15.90;93.20;;;15.45;nan;99689.91;4974989;28;20618;-69
2022/04/06 08:52:58;;;;;;;0.30;0.30;;;15.50;94.50;;;15.25;nan;99699.03;4977079;28;20666;-69
2022/04/06 08:55:31;;;;;;;0.30;0.30;;;15.30;95.90;;;15.08;nan;99701.81;4991613;28;20676;-69
2022/04/06 08:58:00;;;;;;;0.30;0.30;;;15.10;97.20;;;15.04;nan;99703.94;4990487;28;20638;-67
2022/04/06 09:00:27;;;;;;;0.30;0.20;;;15.00;97.90;;;14.62;nan;99696.09;4983420;28;20647;-70
2022/04/06 09:02:54;;;;;;;0.30;0.30;;;14.70;99.00;;;14.59;nan;99701.66;4954664;28;20679;-69
2022/04/06 09:05:26;;;;;;;0.30;0.30;;;14.50;99.90;;;14.55;nan;99699.50;4978545;28;20642;-69
2022/04/06 09:07:54;;;;;;;0.30;0.20;;;14.40;99.90;;;14.53;nan;99693.59;4984912;28;20633;-69
2022/04/06 09:10:34;;;;;;;0.30;0.30;;;14.30;99.90;;;14.49;nan;99687.84;4975785;28;20613;-69
2022/04/06 09:13:20;;;;;;;0.30;0.30;;;14.30;99.90;;;14.52;nan;99695.38;4975859;28;20645;-69
2022/04/06 09:15:53;;;;;;;0.30;0.20;;;14.40;99.90;;;14.50;nan;99688.69;4975099;28;20634;-69
2022/04/06 09:18:35;;;;;;;0.30;0.30;;;14.50;99.90;;;14.41;nan;99681.75;4969159;28;20638;-71
2022/04/06 09:21:03;;;;;;;0.30;0.23;;;14.40;99.90;;;15.24;nan;99691.34;4953927;28;20643;-66
2022/04/06 09:23:33;;;;;;;0.30;0.20;;;15.40;99.90;;;15.84;nan;99689.25;4987100;28;20660;-69
2022/04/06 09:26:06;;;;;;;0.30;0.30;;;16.20;99.50;;;16.20;nan;99696.56;4990189;28;21240;-69
2022/04/06 09:28:40;;;;;;;0.30;0.30;;;16.70;97.10;;;16.48;nan;99683.81;4975498;28;20625;-71
2022/04/06 09:31:08;;;;;;;0.30;0.20;;;17.00;96.00;;;16.28;nan;99682.56;4976863;28;21234;-69
2022/04/06 09:33:41;;;;;;;0.30;0.30;;;16.90;94.60;;;16.58;nan;99684.47;4955002;28;20662;-69
2022/04/06 09:36:21;;;;;;;0.30;0.30;;;16.90;94.30;;;16.78;nan;99679.59;4984347;28;21233;-69
2022/04/06 09:38:51;;;;;;;0.30;0.30;;;17.30;93.70;;;17.00;nan;99678.78;4979968;28;20639;-69
2022/04/06 09:41:19;;;;;;;0.30;0.20;;;17.40;92.10;;;16.78;nan;99674.31;4953950;28;20677;-70
2022/04/06 09:43:47;;;;;;;0.30;0.30;;;17.30;92.00;;;19.34;nan;99669.22;4971309;28;20643;-70
2022/04/06 09:49:24;;;;;;;0.30;0.30;;;25.50;59.60;;;23.76;nan;99670.78;4974422;28;20673;-70
2022/04/06 09:51:52;;;;;;;0.30;0.30;;;26.80;50.70;;;23.35;nan;99656.34;4984582;28;21017;-71
2022/04/06 09:54:19;;;;;;;0.30;0.30;;;25.90;49.50;;;22.59;nan;99656.34;4989533;28;21058;-69
2022/04/06 09:56:46;;;;;;;0.30;0.30;;;24.80;50.50;;;25.04;nan;99652.94;4974388;28;20635;-70
2022/04/06 09:59:15;;;;;;;0.30;0.30;;;27.70;47.40;;;26.49;nan;99647.59;4990411;28;20675;-72
2022/04/06 10:01:49;;;;;;;0.30;0.30;;;30.70;42.80;;;26.98;nan;99645.38;4971937;28;20676;-71
2022/04/06 10:04:25;;;;;;;0.30;0.30;;;31.80;40.20;;;25.92;nan;99641.25;4988359;28;20638;-70
2022/04/06 10:06:52;;;;;;;0.30;0.30;;;29.30;41.20;;;23.88;nan;99631.72;4979869;28;20642;-69
2022/04/06 10:09:20;;;;;;;0.90;0.90;;;26.40;43.90;;;22.90;nan;99650.25;4973497;28;20912;-70
2022/04/06 10:11:51;;;;;;;0.30;0.30;;;24.70;46.10;;;23.43;nan;99632.94;4989194;28;20606;-71
2022/04/06 10:14:19;;;;;;;0.30;0.30;;;25.30;46.10;;;23.30;nan;99632.19;4974287;28;20638;-72
2022/04/06 10:16:46;;;;;;;0.30;0.30;;;24.80;47.10;;;24.72;nan;99636.31;4954607;28;20627;-72
2022/04/06 10:19:19;;;;;;;0.30;0.30;;;26.90;45.20;;;25.51;nan;99630.69;4964981;28;20627;-70
2022/04/06 10:22:19;;;;;;;0.30;0.30;;;27.90;44.30;;;26.33;nan;99631.47;4955069;28;20690;-70
2022/04/06 10:25:10;;;;;;;0.30;0.30;;;28.80;43.40;;;25.81;nan;99623.34;4951896;28;20646;-70
2022/04/06 10:27:46;;;;;;;0.30;0.30;;;29.10;42.50;;;25.14;nan;99621.16;4957873;28;20672;-71
2022/04/06 10:30:26;;;;;;;0.30;0.30;;;27.60;43.40;;;24.59;nan;99620.50;4975009;28;20603;-70
2022/04/06 10:32:57;;;;;;;0.30;0.30;;;26.90;44.50;;;24.45;nan;99614.50;4990440;28;21073;-70
2022/04/06 10:35:33;;;;;;;0.30;0.30;;;26.40;45.40;;;24.35;nan;99624.88;4989263;28;20638;-71
2022/04/06 10:38:03;;;;;;;0.30;0.30;;;26.00;46.10;;;22.89;nan;99614.84;4990227;28;21220;-69
2022/04/06 10:40:42;;;;;;;0.30;0.30;;;24.60;47.50;;;21.81;nan;99603.34;4989909;28;20990;-70
2022/04/06 10:43:50;;;;;;;0.30;0.30;;;23.20;49.40;;;21.48;nan;99595.44;4983922;28;21303;-70
2022/04/06 10:46:40;;;;;;;0.30;0.30;;;22.50;50.70;;;20.74;nan;99610.63;4892825;29;21230;-70
2022/04/06 10:49:07;;;;;;;9.20;3.90;;;21.70;52.10;;;20.09;nan;99608.50;4893421;29;20638;-69
2022/04/06 10:51:37;;;;;;;0.30;0.30;;;21.10;52.90;;;20.26;nan;99606.38;4950328;28;20638;-70
2022/04/06 10:54:13;;;;;;;0.30;0.30;;;20.70;54.00;;;19.42;nan;99602.97;4973123;28;20673;-69
2022/04/06 10:56:55;;;;;;;0.30;0.30;;;20.10;54.20;;;19.39;nan;99603.34;4990522;28;20622;-70
2022/04/06 10:59:24;;;;;;;0.30;0.30;;;19.70;54.70;;;18.68;nan;99604.25;4974427;28;20642;-69
2022/04/06 11:02:13;;;;;;;0.30;0.30;;;19.10;55.70;;;18.23;nan;99600.03;4976427;28;21057;-69
2022/04/06 11:04:40;;;;;;;0.30;0.30;;;18.50;57.10;;;17.92;nan;99607.34;4994422;28;20614;-69
2022/04/06 11:07:08;;;;;;;0.30;0.30;;;18.00;59.10;;;17.65;nan;99603.47;4968573;28;20631;-69
2022/04/06 11:12:29;;;;;;;0.30;0.30;;;17.50;60.20;;;17.31;nan;99597.03;4958520;28;20650;-67
2022/04/06 11:14:58;;;;;;;0.30;0.30;;;17.40;61.00;;;17.11;nan;99593.22;4974301;28;20638;-69
2022/04/06 11:17:32;;;;;;;0.30;0.30;;;17.10;62.10;;;17.26;nan;99591.47;4985476;28;21209;-70